createdAt,value
2023-03-29T00:14:55.765Z,1017.77
2023-03-29T00:29:57.275Z,1017.70
2023-03-29T00:44:57.692Z,1017.61
2023-03-29T00:59:58.297Z,1017.28
2023-03-29T01:14:58.102Z,1017.16
2023-03-29T01:29:58.466Z,1016.84
2023-03-29T01:44:58.673Z,1016.62
2023-03-29T01:59:58.946Z,1016.41
2023-03-29T02:14:58.612Z,1016.21
2023-03-29T02:29:58.875Z,1016.01
2023-03-29T02:44:59.239Z,1015.85
2023-03-29T02:59:58.943Z,1015.61
2023-03-29T03:14:59.019Z,1015.44
2023-03-29T03:29:59.388Z,1015.37
2023-03-29T03:44:59.324Z,1015.29
2023-03-29T03:59:59.457Z,1015.27
2023-03-29T04:14:59.514Z,1015.29
2023-03-29T04:30:00.328Z,1015.17
2023-03-29T04:45:00.907Z,1015.08
2023-03-29T05:00:01.126Z,1014.99
2023-03-29T05:15:01.168Z,1014.89
2023-03-29T05:30:01.726Z,1014.81
2023-03-29T05:45:02.268Z,1014.70
2023-03-29T06:00:03.062Z,1014.66
2023-03-29T06:15:02.631Z,1014.66
2023-03-29T06:30:03.258Z,1014.61
2023-03-29T06:45:03.811Z,1014.61
2023-03-29T07:00:03.932Z,1014.53
2023-03-29T07:15:03.994Z,1014.52
2023-03-29T07:30:04.206Z,1014.50
2023-03-29T07:45:04.603Z,1014.52
2023-03-29T08:00:04.309Z,1014.60
2023-03-29T08:15:04.347Z,1014.49
2023-03-29T08:30:04.498Z,1014.23
2023-03-29T08:45:04.687Z,1014.16
2023-03-29T09:00:05.197Z,1014.08
2023-03-29T09:15:04.892Z,1013.94
2023-03-29T09:30:08.263Z,1013.95
2023-03-29T09:45:08.001Z,1014.00
2023-03-29T10:00:08.111Z,1013.70
2023-03-29T10:15:13.881Z,1013.61
2023-03-29T10:30:13.352Z,1013.42
2023-03-29T10:45:13.333Z,1013.38
2023-03-29T11:00:13.511Z,1013.25
2023-03-29T11:15:13.508Z,1013.06
2023-03-29T11:30:13.678Z,1012.95
2023-03-29T11:45:13.690Z,1012.72
2023-03-29T12:00:13.783Z,1012.76
2023-03-29T12:15:13.929Z,1012.59
2023-03-29T12:30:14.037Z,1012.47
2023-03-29T12:45:14.102Z,1012.44
2023-03-29T13:00:14.209Z,1012.14
2023-03-29T13:15:14.246Z,1012.27
2023-03-29T13:30:14.431Z,1012.23
2023-03-29T13:45:14.407Z,1012.11
2023-03-29T14:00:14.506Z,1011.98
2023-03-29T14:15:14.571Z,1012.08
2023-03-29T14:30:15.776Z,1011.95
2023-03-29T14:45:15.725Z,1011.97
2023-03-29T15:00:15.834Z,1011.76
